Mobile Downtown Airport
KBFM : now visible

Airfield :











YOU CAN JOIN US ON...

 
LOGIN :

Register | Disclaimer

   EN    FR    IT 

 









Legend :    VFR   Marginal VFR   IFR   Intensive IFR   Very Intensive IFR
Visi :
Ceiling :
>= 8 km
>= 3000ft
5 to 8 km
1000 to 3000 ft
1500m to 5 km
500 to 1000 ft
800 to 1500m
200 to 500 ft
< 800m
< 200 ft
Symbols :   Thunderstorms  Fog  Heavy snow  Heavy precipitations  Wind > 20 kt






- Airport Elevation : 26 ft


KBFM - Mobile Downtown

CURRENT METAR :
  • 281553Z 25004KT 10SM SCT029 SCT040 BKN050 29/22 A3003 RMK AO2 SLP168 T02890217

EXPIRED METARs :
  • 281453Z VRB04KT 10SM SCT024 28/22 A3003 RMK AO2 SLP170 T02830222 51014
  • 281353Z VRB04KT 10SM SCT016 28/23 A3003 RMK AO2 SLP168 T02830233

TAF KBFM
Valid from the 28 at 12:00 until the 29 at 12:00 UTC


281120Z 2812/2912 22004KT P6SM SCT100
FM281900 20008KT P6SM VCTS SCT025CB BKN250
FM290800 VRB03KT P6SM VCTS OVC018CB
PROB30 2908/2912 4SM TSRA OVC009CB
KZHU FIR / North America



MET'MAP, your aeronautical weather chart ! - Copyright ORBIFLY December 2007 - Disclaimer

ORBIFLY MET'MAP TEAM :

Programming & Development : Alexandra Zaïnal
Concept & original design : Baudouin d'Aumeries
Assistance for programming : Marc-Olivier Méhu
Technical & hardware support : Manuel Goepfert

Contact : metmap@orbifly.com




SOURCES & CREDITS :

   NOAA       Earth
Advisory